createdAt,value
2017-08-09T00:02:18.082Z,22.30
2017-08-09T00:04:44.073Z,22.30
2017-08-09T00:07:10.061Z,22.30
2017-08-09T00:09:36.071Z,22.20
2017-08-09T00:12:02.042Z,22.20
2017-08-09T00:14:28.739Z,22.10
2017-08-09T00:16:54.726Z,22.10
2017-08-09T00:19:20.711Z,22.00
2017-08-09T00:21:46.707Z,22.00
2017-08-09T00:24:12.659Z,22.00
2017-08-09T00:26:38.630Z,21.90
2017-08-09T00:29:04.609Z,21.90
2017-08-09T00:31:30.553Z,21.80
2017-08-09T00:33:56.550Z,21.80
2017-08-09T00:36:22.497Z,21.70
2017-08-09T00:38:48.456Z,21.70
2017-08-09T00:41:14.434Z,21.70
2017-08-09T00:43:40.394Z,21.60
2017-08-09T00:46:06.399Z,21.60
2017-08-09T00:48:32.358Z,21.70
2017-08-09T00:50:58.313Z,21.80
2017-08-09T00:53:24.289Z,21.70
2017-08-09T00:55:50.330Z,21.80
2017-08-09T00:58:16.281Z,21.80
2017-08-09T01:00:42.233Z,21.80
2017-08-09T01:03:08.962Z,21.70
2017-08-09T01:05:35.661Z,21.70
2017-08-09T01:08:01.686Z,21.70
2017-08-09T01:10:28.467Z,21.70
2017-08-09T01:12:54.438Z,21.70
2017-08-09T01:15:21.133Z,21.60
2017-08-09T01:17:47.123Z,21.60
2017-08-09T01:20:13.082Z,21.60
2017-08-09T01:22:39.085Z,21.60
2017-08-09T01:25:05.777Z,21.50
2017-08-09T01:27:31.725Z,21.50
2017-08-09T01:29:57.722Z,21.50
2017-08-09T01:32:24.410Z,21.30
2017-08-09T01:34:50.383Z,21.30
2017-08-09T01:37:16.358Z,21.00
2017-08-09T01:39:42.352Z,21.10
2017-08-09T01:42:08.298Z,21.20
2017-08-09T01:44:34.250Z,21.30
2017-08-09T01:47:00.251Z,21.20
2017-08-09T01:49:26.226Z,21.30
2017-08-09T01:51:52.166Z,21.30
2017-08-09T01:54:18.899Z,21.20
2017-08-09T01:56:44.856Z,21.20
2017-08-09T01:59:10.793Z,21.20
2017-08-09T02:01:37.530Z,21.20
2017-08-09T02:04:04.209Z,21.20
2017-08-09T02:06:30.203Z,21.10
2017-08-09T02:08:56.189Z,21.20
2017-08-09T02:11:22.130Z,21.10
2017-08-09T02:13:48.142Z,21.00
2017-08-09T02:16:14.087Z,21.00
2017-08-09T02:18:40.781Z,20.90
2017-08-09T02:21:06.774Z,20.90
2017-08-09T02:23:32.717Z,21.00
2017-08-09T02:25:58.698Z,21.00
2017-08-09T02:28:24.694Z,21.00
2017-08-09T02:30:50.654Z,20.90
2017-08-09T02:33:17.370Z,20.70
2017-08-09T02:35:43.322Z,20.70
2017-08-09T02:38:09.310Z,20.80
2017-08-09T02:40:35.378Z,20.80
2017-08-09T02:43:01.326Z,20.90
2017-08-09T02:45:28.027Z,20.90
2017-08-09T02:47:54.032Z,20.90
2017-08-09T02:50:20.009Z,20.80
2017-08-09T02:52:45.989Z,20.80
2017-08-09T02:55:11.933Z,20.70
2017-08-09T02:57:37.878Z,20.80
2017-08-09T03:00:04.594Z,20.60
2017-08-09T03:02:30.581Z,20.60
2017-08-09T03:04:56.529Z,20.60
2017-08-09T03:07:23.214Z,20.60
2017-08-09T03:09:49.286Z,20.50
2017-08-09T03:12:15.227Z,20.50
2017-08-09T03:14:41.175Z,20.50
2017-08-09T03:17:07.910Z,20.40
2017-08-09T03:19:34.601Z,20.40
2017-08-09T03:22:00.595Z,20.40
2017-08-09T03:24:26.606Z,20.30
2017-08-09T03:26:52.558Z,20.30
2017-08-09T03:29:19.252Z,20.20
2017-08-09T03:31:45.262Z,20.30
2017-08-09T03:34:11.214Z,20.30
2017-08-09T03:36:37.162Z,20.20
2017-08-09T03:39:03.136Z,20.20
2017-08-09T03:41:29.082Z,20.20
2017-08-09T03:43:55.083Z,20.10
2017-08-09T03:46:21.053Z,20.10
2017-08-09T03:48:47.002Z,20.10
2017-08-09T03:51:12.994Z,20.00
2017-08-09T03:53:38.942Z,20.00
2017-08-09T03:56:04.916Z,20.00
2017-08-09T03:58:30.890Z,20.00
2017-08-09T04:00:56.838Z,20.00
2017-08-09T04:03:22.813Z,20.00
2017-08-09T04:05:48.789Z,20.00
2017-08-09T04:08:15.519Z,20.00
2017-08-09T04:10:42.243Z,20.00
2017-08-09T04:13:08.209Z,20.00
2017-08-09T04:15:35.894Z,20.00
2017-08-09T04:18:03.319Z,20.00
2017-08-09T04:20:29.307Z,20.00
2017-08-09T04:22:55.429Z,20.00
2017-08-09T04:25:21.434Z,20.00
2017-08-09T04:27:47.414Z,20.00
2017-08-09T04:30:13.414Z,20.00
2017-08-09T04:32:39.357Z,20.10
2017-08-09T04:35:05.307Z,20.10
2017-08-09T04:37:32.030Z,20.10
2017-08-09T04:39:58.779Z,19.90
2017-08-09T04:42:24.749Z,19.90
2017-08-09T04:44:50.689Z,20.00
2017-08-09T04:47:16.695Z,20.00
2017-08-09T04:49:42.647Z,20.00
2017-08-09T04:52:08.622Z,20.10
2017-08-09T04:54:34.566Z,20.00
2017-08-09T04:57:00.538Z,20.10
2017-08-09T04:59:26.521Z,20.10
2017-08-09T05:01:52.530Z,20.10
2017-08-09T05:04:18.490Z,20.10
2017-08-09T05:06:44.882Z,20.00
2017-08-09T05:09:10.920Z,20.10
2017-08-09T05:11:36.929Z,20.10
2017-08-09T05:14:02.886Z,20.00
2017-08-09T05:16:28.833Z,19.90
2017-08-09T05:18:54.837Z,20.00
2017-08-09T05:21:20.786Z,20.00
2017-08-09T05:23:46.777Z,20.00
2017-08-09T05:26:13.465Z,20.00
2017-08-09T05:28:39.424Z,20.00
2017-08-09T05:31:06.183Z,20.20
2017-08-09T05:33:32.139Z,20.20
2017-08-09T05:35:58.097Z,20.20
2017-08-09T05:38:24.163Z,20.30
2017-08-09T05:40:50.894Z,20.40
2017-08-09T05:43:17.595Z,20.50
2017-08-09T05:45:43.550Z,20.50
2017-08-09T05:48:09.539Z,20.50
2017-08-09T05:50:35.513Z,20.50
2017-08-09T05:53:01.501Z,20.60
2017-08-09T05:55:27.457Z,20.50
2017-08-09T05:57:54.161Z,20.50
2017-08-09T06:00:20.161Z,20.50
2017-08-09T06:02:46.154Z,20.50
2017-08-09T06:05:12.110Z,20.50
2017-08-09T06:07:38.862Z,20.60
2017-08-09T06:10:04.797Z,20.60
2017-08-09T06:12:30.778Z,20.60
2017-08-09T06:14:56.721Z,20.50
2017-08-09T06:17:22.676Z,20.70
2017-08-09T06:19:48.681Z,20.80
2017-08-09T06:22:14.662Z,20.80
2017-08-09T06:24:40.676Z,20.80
2017-08-09T06:27:06.636Z,20.90
2017-08-09T06:29:32.582Z,20.90
2017-08-09T06:31:58.567Z,20.80
2017-08-09T06:34:24.518Z,20.80
2017-08-09T06:36:51.201Z,20.90
2017-08-09T06:39:17.193Z,20.90
2017-08-09T06:41:43.140Z,21.00
2017-08-09T06:44:09.083Z,20.90
2017-08-09T06:46:35.807Z,21.00
2017-08-09T06:49:01.758Z,20.90
2017-08-09T06:51:27.747Z,21.00
2017-08-09T06:53:53.702Z,20.90
2017-08-09T06:56:20.426Z,20.90
2017-08-09T06:58:47.141Z,20.90
2017-08-09T07:01:13.891Z,20.90
2017-08-09T07:03:39.842Z,20.90
2017-08-09T07:06:05.827Z,21.00
2017-08-09T07:08:31.829Z,21.00
2017-08-09T07:10:57.832Z,21.00
2017-08-09T07:13:23.802Z,21.10
2017-08-09T07:15:49.806Z,21.10
2017-08-09T07:18:16.832Z,21.20
2017-08-09T07:20:42.942Z,21.20
2017-08-09T07:23:08.926Z,21.20
2017-08-09T07:25:34.923Z,21.30
2017-08-09T07:28:00.887Z,21.30
2017-08-09T07:30:27.618Z,21.40
2017-08-09T07:32:54.357Z,21.50
2017-08-09T07:35:20.327Z,21.50
2017-08-09T07:37:46.291Z,21.50
2017-08-09T07:40:12.278Z,21.50
2017-08-09T07:42:39.175Z,21.60
2017-08-09T07:45:05.208Z,21.60
2017-08-09T07:47:31.915Z,21.50
2017-08-09T07:49:57.873Z,21.50
2017-08-09T07:52:23.853Z,21.50
2017-08-09T07:54:50.564Z,21.60
2017-08-09T07:57:17.318Z,21.70
2017-08-09T07:59:43.301Z,21.60
2017-08-09T08:02:09.265Z,21.70
2017-08-09T08:04:35.313Z,21.70
2017-08-09T08:07:01.261Z,21.60
2017-08-09T08:09:27.262Z,21.70
2017-08-09T08:11:53.245Z,21.70
2017-08-09T08:14:19.194Z,21.70
2017-08-09T08:16:45.265Z,21.70
2017-08-09T08:19:11.274Z,21.70
2017-08-09T08:21:37.243Z,21.70
2017-08-09T08:24:03.203Z,21.80
2017-08-09T08:26:29.250Z,21.80
2017-08-09T08:28:55.298Z,21.80
2017-08-09T08:31:21.998Z,22.00
2017-08-09T08:33:47.949Z,22.00
2017-08-09T08:36:13.945Z,22.00
2017-08-09T08:38:40.661Z,22.00
2017-08-09T08:41:06.619Z,22.00
2017-08-09T08:43:32.630Z,22.00
2017-08-09T08:45:58.581Z,22.00
2017-08-09T08:48:24.523Z,22.00
2017-08-09T08:50:50.502Z,22.00
2017-08-09T08:53:16.510Z,22.10
2017-08-09T08:55:43.244Z,22.20
2017-08-09T08:58:09.971Z,22.30
2017-08-09T09:00:36.710Z,22.30
2017-08-09T09:03:02.675Z,22.30
2017-08-09T09:05:28.636Z,22.30
2017-08-09T09:07:54.641Z,22.30
2017-08-09T09:10:20.619Z,22.40
2017-08-09T09:12:47.347Z,22.60
2017-08-09T09:15:13.312Z,22.50
2017-08-09T09:17:39.287Z,22.60
2017-08-09T09:20:05.235Z,22.60
2017-08-09T09:22:31.230Z,22.70
2017-08-09T09:24:57.202Z,22.80
2017-08-09T09:27:23.141Z,22.80
2017-08-09T09:29:49.866Z,22.80
2017-08-09T09:32:15.811Z,22.80
2017-08-09T09:34:41.766Z,22.80
2017-08-09T09:37:07.746Z,22.70
2017-08-09T09:39:33.726Z,22.70
2017-08-09T09:41:59.684Z,22.70
2017-08-09T09:44:25.658Z,22.70
2017-08-09T09:46:51.655Z,22.80
2017-08-09T09:49:17.629Z,22.90
2017-08-09T09:51:44.325Z,23.20
2017-08-09T09:54:10.351Z,23.10
2017-08-09T09:56:37.035Z,23.30
2017-08-09T09:59:03.086Z,23.30
2017-08-09T10:01:29.793Z,23.20
2017-08-09T10:03:55.738Z,23.20
2017-08-09T10:06:21.682Z,23.30
2017-08-09T10:08:47.670Z,23.30
2017-08-09T10:11:13.665Z,23.30
2017-08-09T10:13:39.645Z,23.30
2017-08-09T10:16:05.644Z,23.40
2017-08-09T10:18:31.589Z,23.40
2017-08-09T10:20:57.590Z,23.30
2017-08-09T10:23:23.542Z,23.30
2017-08-09T10:25:49.502Z,23.40
2017-08-09T10:28:16.237Z,23.60
2017-08-09T10:30:42.230Z,23.50
2017-08-09T10:33:08.258Z,23.50
2017-08-09T10:35:34.214Z,23.50
2017-08-09T10:38:00.159Z,23.50
2017-08-09T10:40:26.881Z,23.70
2017-08-09T10:42:53.632Z,23.70
2017-08-09T10:45:19.582Z,23.70
2017-08-09T10:47:45.539Z,23.80
2017-08-09T10:50:11.526Z,23.80
2017-08-09T10:52:37.526Z,23.90
2017-08-09T10:55:03.548Z,23.90
2017-08-09T10:57:30.248Z,24.00
2017-08-09T10:59:56.233Z,24.10
2017-08-09T11:02:22.213Z,24.10
2017-08-09T11:04:48.170Z,24.30
2017-08-09T11:07:14.230Z,24.40
2017-08-09T11:09:40.187Z,24.40
2017-08-09T11:12:06.161Z,24.40
2017-08-09T11:14:32.174Z,24.50
2017-08-09T11:16:58.158Z,24.50
2017-08-09T11:19:24.901Z,24.60
2017-08-09T11:21:50.866Z,24.50
2017-08-09T11:24:16.821Z,24.60
2017-08-09T11:26:42.829Z,24.70
2017-08-09T11:29:08.777Z,24.80
2017-08-09T11:31:34.739Z,24.90
2017-08-09T11:34:00.730Z,25.00
2017-08-09T11:36:26.682Z,25.00
2017-08-09T11:38:52.665Z,25.00
2017-08-09T11:41:18.690Z,25.10
2017-08-09T11:43:44.634Z,25.20
2017-08-09T11:46:10.587Z,25.20
2017-08-09T11:48:36.623Z,25.10
2017-08-09T11:51:02.565Z,25.10
2017-08-09T11:53:28.518Z,25.10
2017-08-09T11:55:54.509Z,25.10
2017-08-09T11:58:21.214Z,25.30
2017-08-09T12:00:47.182Z,25.20
2017-08-09T12:03:13.189Z,25.40
2017-08-09T12:05:39.137Z,25.50
2017-08-09T12:08:05.118Z,25.50
2017-08-09T12:10:31.068Z,25.50
2017-08-09T12:12:57.810Z,25.50
2017-08-09T12:15:23.799Z,25.50
2017-08-09T12:17:49.758Z,25.60
2017-08-09T12:20:15.746Z,25.60
2017-08-09T12:22:41.701Z,25.60
2017-08-09T12:25:07.645Z,25.80
2017-08-09T12:27:33.629Z,25.60
2017-08-09T12:29:59.571Z,25.80
2017-08-09T12:32:25.542Z,26.00
2017-08-09T12:34:51.522Z,26.20
2017-08-09T12:37:18.214Z,26.40
2017-08-09T12:39:44.166Z,26.30
2017-08-09T12:42:10.164Z,26.50
2017-08-09T12:44:36.102Z,26.50
2017-08-09T12:47:02.094Z,26.60
2017-08-09T12:49:28.077Z,26.60
2017-08-09T12:51:54.018Z,26.80
2017-08-09T12:54:20.013Z,27.00
2017-08-09T12:56:45.953Z,26.90
2017-08-09T12:59:12.666Z,27.00
2017-08-09T13:01:38.690Z,27.00
2017-08-09T13:04:04.644Z,26.90
2017-08-09T13:06:34.281Z,26.40
2017-08-09T13:09:00.313Z,26.40
2017-08-09T13:11:26.269Z,26.60
2017-08-09T13:13:52.481Z,26.70
2017-08-09T13:16:18.446Z,26.90
2017-08-09T13:18:45.125Z,27.40
2017-08-09T13:21:11.152Z,27.30
2017-08-09T13:23:37.101Z,27.40
2017-08-09T13:26:03.086Z,27.60
2017-08-09T13:28:29.061Z,27.60
2017-08-09T13:30:55.038Z,27.70
2017-08-09T13:33:20.974Z,27.80
2017-08-09T13:35:46.913Z,27.80
2017-08-09T13:38:12.902Z,28.00
2017-08-09T13:40:38.853Z,27.90
2017-08-09T13:43:05.541Z,27.80
2017-08-09T13:45:31.525Z,27.80
2017-08-09T13:47:57.525Z,27.70
2017-08-09T13:50:23.519Z,27.70
2017-08-09T13:52:49.462Z,27.60
2017-08-09T13:55:15.404Z,27.60
2017-08-09T13:57:41.457Z,27.70
2017-08-09T14:00:07.438Z,27.60
2017-08-09T14:02:34.147Z,27.80
2017-08-09T14:05:00.191Z,27.70
2017-08-09T14:07:26.399Z,27.80
2017-08-09T14:09:53.177Z,27.60
2017-08-09T14:12:19.117Z,27.60
2017-08-09T14:14:45.074Z,27.50
2017-08-09T14:17:11.049Z,27.50
2017-08-09T14:19:37.002Z,27.50
2017-08-09T14:22:03.009Z,27.60
2017-08-09T14:24:29.703Z,27.90
2017-08-09T14:26:55.655Z,27.90
2017-08-09T14:29:21.657Z,28.00
2017-08-09T14:31:47.615Z,28.10
2017-08-09T14:34:13.611Z,28.10
2017-08-09T14:36:39.566Z,28.30
2017-08-09T14:39:05.585Z,28.30
2017-08-09T14:41:32.315Z,28.30
2017-08-09T14:43:58.305Z,28.30
2017-08-09T14:46:24.251Z,28.20
2017-08-09T14:48:50.201Z,28.10
2017-08-09T14:51:16.198Z,28.20
2017-08-09T14:53:42.138Z,28.20
2017-08-09T14:56:08.877Z,28.20
2017-08-09T14:58:34.869Z,28.30
2017-08-09T15:01:00.950Z,28.10
2017-08-09T15:03:26.889Z,28.10
2017-08-09T15:05:52.905Z,28.00
2017-08-09T15:08:18.962Z,28.00
2017-08-09T15:10:44.970Z,28.20
2017-08-09T15:13:10.966Z,28.00
2017-08-09T15:15:36.911Z,28.10
2017-08-09T15:18:02.909Z,28.20
2017-08-09T15:20:28.890Z,28.30
2017-08-09T15:22:55.615Z,28.20
2017-08-09T15:25:21.602Z,28.20
2017-08-09T15:27:47.546Z,28.30
2017-08-09T15:30:14.297Z,28.50
2017-08-09T15:32:40.281Z,28.40
2017-08-09T15:35:07.013Z,28.40
2017-08-09T15:37:33.086Z,28.40
2017-08-09T15:39:59.042Z,28.60
2017-08-09T15:42:25.057Z,28.50
2017-08-09T15:44:50.995Z,28.40
2017-08-09T15:47:16.933Z,28.50
2017-08-09T15:49:42.917Z,28.60
2017-08-09T15:52:08.893Z,28.60
2017-08-09T15:54:34.889Z,28.60
2017-08-09T15:57:00.890Z,28.60
2017-08-09T15:59:26.930Z,28.40
2017-08-09T16:01:52.882Z,28.30
2017-08-09T16:04:18.829Z,28.20
2017-08-09T16:06:44.831Z,28.20
2017-08-09T16:09:10.781Z,28.10
2017-08-09T16:11:36.766Z,28.30
2017-08-09T16:14:02.734Z,28.20
2017-08-09T16:16:28.799Z,28.20
2017-08-09T16:18:54.809Z,28.20
2017-08-09T16:21:20.815Z,28.10
2017-08-09T16:23:46.809Z,28.20
2017-08-09T16:26:12.786Z,28.10
2017-08-09T16:28:39.535Z,28.10
2017-08-09T16:31:05.521Z,28.10
2017-08-09T16:33:32.279Z,27.90
2017-08-09T16:35:58.234Z,27.90
2017-08-09T16:38:24.251Z,27.90
2017-08-09T16:40:50.206Z,27.90
2017-08-09T16:43:16.182Z,28.00
2017-08-09T16:45:42.871Z,27.90
2017-08-09T16:48:08.847Z,27.90
2017-08-09T16:50:34.833Z,27.90
2017-08-09T16:53:00.813Z,27.80
2017-08-09T16:55:26.788Z,27.80
2017-08-09T16:57:52.802Z,27.70
2017-08-09T17:00:18.784Z,27.70
2017-08-09T17:02:44.738Z,27.60
2017-08-09T17:05:10.714Z,27.70
2017-08-09T17:07:36.663Z,27.80
2017-08-09T17:10:02.680Z,27.80
2017-08-09T17:12:28.625Z,27.80
2017-08-09T17:14:54.606Z,27.70
2017-08-09T17:17:20.938Z,27.60
2017-08-09T17:19:46.881Z,27.70
2017-08-09T17:22:12.869Z,27.60
2017-08-09T17:24:38.843Z,27.70
2017-08-09T17:27:04.822Z,27.70
2017-08-09T17:29:30.821Z,27.60
2017-08-09T17:31:56.846Z,27.70
2017-08-09T17:34:22.866Z,27.70
2017-08-09T17:36:48.834Z,27.70
2017-08-09T17:39:15.155Z,27.80
2017-08-09T17:41:41.226Z,27.70
2017-08-09T17:44:07.165Z,27.70
2017-08-09T17:46:33.106Z,27.70
2017-08-09T17:48:59.089Z,27.70
2017-08-09T17:51:25.850Z,27.60
2017-08-09T17:53:51.847Z,27.50
2017-08-09T17:56:17.831Z,27.50
2017-08-09T17:58:43.779Z,27.50
2017-08-09T18:01:09.784Z,27.50
2017-08-09T18:03:36.621Z,27.50
2017-08-09T18:06:02.628Z,27.50
2017-08-09T18:08:28.633Z,27.40
2017-08-09T18:10:54.590Z,27.30
2017-08-09T18:13:20.597Z,27.30
2017-08-09T18:15:46.576Z,27.20
2017-08-09T18:18:12.551Z,27.30
2017-08-09T18:20:38.606Z,27.20
2017-08-09T18:23:04.552Z,27.20
2017-08-09T18:25:31.241Z,27.10
2017-08-09T18:27:57.280Z,27.10
2017-08-09T18:30:23.323Z,26.90
2017-08-09T18:32:49.378Z,26.90
2017-08-09T18:35:15.357Z,26.90
2017-08-09T18:37:41.346Z,26.90
2017-08-09T18:40:07.330Z,26.70
2017-08-09T18:42:33.277Z,26.50
2017-08-09T18:44:59.273Z,26.30
2017-08-09T18:47:25.242Z,26.20
2017-08-09T18:49:51.193Z,26.20
2017-08-09T18:52:17.191Z,26.00
2017-08-09T18:54:43.129Z,26.00
2017-08-09T18:57:09.819Z,25.70
2017-08-09T18:59:35.825Z,25.70
2017-08-09T19:02:01.794Z,26.00
2017-08-09T19:04:27.745Z,26.10
2017-08-09T19:06:53.746Z,26.00
2017-08-09T19:09:19.694Z,25.80
2017-08-09T19:11:46.040Z,25.80
2017-08-09T19:14:12.018Z,25.70
2017-08-09T19:16:38.082Z,25.50
2017-08-09T19:19:04.098Z,25.40
2017-08-09T19:21:30.086Z,25.40
2017-08-09T19:23:56.200Z,25.40
2017-08-09T19:26:22.219Z,25.50
2017-08-09T19:28:48.252Z,25.50
2017-08-09T19:31:14.202Z,25.40
2017-08-09T19:33:40.179Z,25.20
2017-08-09T19:36:06.159Z,25.20
2017-08-09T19:38:32.106Z,25.20
2017-08-09T19:40:58.081Z,25.30
2017-08-09T19:43:24.025Z,25.10
2017-08-09T19:45:50.753Z,25.10
2017-08-09T19:48:16.695Z,25.10
2017-08-09T19:50:42.705Z,25.20
2017-08-09T19:53:08.691Z,24.90
2017-08-09T19:55:34.727Z,24.80
2017-08-09T19:58:00.715Z,24.80
2017-08-09T20:00:26.658Z,24.70
2017-08-09T20:02:52.630Z,24.80
2017-08-09T20:05:18.604Z,24.80
2017-08-09T20:07:45.330Z,24.80
2017-08-09T20:10:12.055Z,24.90
2017-08-09T20:12:38.766Z,24.80
2017-08-09T20:15:04.754Z,24.80
2017-08-09T20:17:30.698Z,24.80
2017-08-09T20:19:57.385Z,25.00
2017-08-09T20:22:23.367Z,24.90
2017-08-09T20:24:49.313Z,24.80
2017-08-09T20:27:15.266Z,24.80
2017-08-09T20:29:41.278Z,24.70
2017-08-09T20:32:07.270Z,24.70
2017-08-09T20:34:33.261Z,24.80
2017-08-09T20:36:59.207Z,24.80
2017-08-09T20:39:25.146Z,24.90
2017-08-09T20:41:51.143Z,24.90
2017-08-09T20:44:17.086Z,24.90
2017-08-09T20:46:43.033Z,24.80
2017-08-09T20:49:09.027Z,24.60
2017-08-09T20:51:35.714Z,24.60
2017-08-09T20:54:01.726Z,24.50
2017-08-09T20:56:27.674Z,24.60
2017-08-09T20:58:54.406Z,24.60
2017-08-09T21:01:20.383Z,24.50
2017-08-09T21:03:46.403Z,24.60
2017-08-09T21:06:13.107Z,24.60
2017-08-09T21:08:39.071Z,24.60
2017-08-09T21:11:05.045Z,24.60
2017-08-09T21:13:31.031Z,24.50
2017-08-09T21:15:57.019Z,24.50
2017-08-09T21:18:22.999Z,24.50
2017-08-09T21:20:48.981Z,24.50
2017-08-09T21:23:14.922Z,24.40
2017-08-09T21:25:40.865Z,24.30
2017-08-09T21:28:06.872Z,24.30
2017-08-09T21:30:32.820Z,24.30
2017-08-09T21:32:59.510Z,24.30
2017-08-09T21:35:25.512Z,24.30
2017-08-09T21:37:51.465Z,24.20
2017-08-09T21:40:18.199Z,24.20
2017-08-09T21:42:44.203Z,24.10
2017-08-09T21:45:10.899Z,23.80
2017-08-09T21:47:36.896Z,23.80
2017-08-09T21:50:02.849Z,23.90
2017-08-09T21:52:29.582Z,23.80
2017-08-09T21:54:55.587Z,23.90
2017-08-09T21:57:21.534Z,23.80
2017-08-09T21:59:47.511Z,23.70
2017-08-09T22:02:13.499Z,23.70
2017-08-09T22:04:39.448Z,23.60
2017-08-09T22:07:05.386Z,23.50
2017-08-09T22:09:31.354Z,23.50
2017-08-09T22:11:57.293Z,23.60
2017-08-09T22:14:23.287Z,23.70
2017-08-09T22:16:49.234Z,23.70
2017-08-09T22:19:15.185Z,23.80
2017-08-09T22:21:41.200Z,23.70
2017-08-09T22:24:07.185Z,23.60
2017-08-09T22:26:33.177Z,23.70
2017-08-09T22:28:59.173Z,23.50
2017-08-09T22:31:25.127Z,23.50
2017-08-09T22:33:51.070Z,23.40
2017-08-09T22:36:17.050Z,23.40
2017-08-09T22:38:43.006Z,23.30
2017-08-09T22:41:09.011Z,23.10
2017-08-09T22:43:34.954Z,22.60
2017-08-09T22:46:00.897Z,22.30
2017-08-09T22:48:26.893Z,22.40
2017-08-09T22:50:52.855Z,22.50
2017-08-09T22:53:18.794Z,22.60
2017-08-09T22:55:44.794Z,22.70
2017-08-09T22:58:10.746Z,22.80
2017-08-09T23:00:36.705Z,22.70
2017-08-09T23:03:03.435Z,22.70
2017-08-09T23:05:29.382Z,22.60
2017-08-09T23:07:55.326Z,22.70
2017-08-09T23:10:21.308Z,22.80
2017-08-09T23:12:47.258Z,22.50
2017-08-09T23:15:13.990Z,22.30
2017-08-09T23:17:39.938Z,22.30
2017-08-09T23:20:05.877Z,22.20
2017-08-09T23:22:31.869Z,22.00
2017-08-09T23:24:57.853Z,21.90
2017-08-09T23:27:23.807Z,21.90
2017-08-09T23:29:49.801Z,21.80
2017-08-09T23:32:15.749Z,21.70
2017-08-09T23:34:41.696Z,21.60
2017-08-09T23:37:07.708Z,21.30
2017-08-09T23:39:33.659Z,21.00
2017-08-09T23:42:00.347Z,20.80
2017-08-09T23:44:26.333Z,20.80
2017-08-09T23:46:52.281Z,20.80
2017-08-09T23:49:18.262Z,20.60
2017-08-09T23:51:44.260Z,20.50
2017-08-09T23:54:10.223Z,20.40
2017-08-09T23:56:36.211Z,20.30
2017-08-09T23:59:02.191Z,20.20
